sensor_id;sensor_type;location;lat;lon;timestamp;P1;durP1;ratioP1;P2;durP2;ratioP2
4096;SDS011;2062;50.694;7.246;2022-08-21T00:00:04;8.10;;;3.85;;
4096;SDS011;2062;50.694;7.246;2022-08-21T00:02:33;8.05;;;3.95;;
4096;SDS011;2062;50.694;7.246;2022-08-21T00:05:00;9.35;;;3.97;;
4096;SDS011;2062;50.694;7.246;2022-08-21T00:07:27;8.43;;;4.38;;
4096;SDS011;2062;50.694;7.246;2022-08-21T00:09:55;8.67;;;3.80;;
4096;SDS011;2062;50.694;7.246;2022-08-21T00:12:23;9.00;;;4.20;;
4096;SDS011;2062;50.694;7.246;2022-08-21T00:14:50;8.60;;;4.15;;
4096;SDS011;2062;50.694;7.246;2022-08-21T00:17:17;8.95;;;3.80;;
4096;SDS011;2062;50.694;7.246;2022-08-21T00:19:44;7.65;;;4.32;;
4096;SDS011;2062;50.694;7.246;2022-08-21T00:22:11;8.40;;;3.80;;
4096;SDS011;2062;50.694;7.246;2022-08-21T00:24:37;7.75;;;3.55;;
4096;SDS011;2062;50.694;7.246;2022-08-21T00:27:06;6.88;;;4.00;;
4096;SDS011;2062;50.694;7.246;2022-08-21T00:29:33;11.70;;;3.50;;
4096;SDS011;2062;50.694;7.246;2022-08-21T00:32:00;7.65;;;3.95;;
4096;SDS011;2062;50.694;7.246;2022-08-21T00:34:27;8.00;;;4.03;;
4096;SDS011;2062;50.694;7.246;2022-08-21T00:36:54;8.55;;;3.70;;
4096;SDS011;2062;50.694;7.246;2022-08-21T00:39:22;8.77;;;3.80;;
4096;SDS011;2062;50.694;7.246;2022-08-21T00:41:49;7.43;;;3.42;;
4096;SDS011;2062;50.694;7.246;2022-08-21T00:44:17;6.05;;;3.50;;
4096;SDS011;2062;50.694;7.246;2022-08-21T00:46:44;7.23;;;3.90;;
4096;SDS011;2062;50.694;7.246;2022-08-21T00:49:12;8.98;;;3.65;;
4096;SDS011;2062;50.694;7.246;2022-08-21T00:51:39;7.63;;;3.78;;
4096;SDS011;2062;50.694;7.246;2022-08-21T00:54:10;8.38;;;3.75;;
4096;SDS011;2062;50.694;7.246;2022-08-21T00:56:38;6.63;;;3.65;;
4096;SDS011;2062;50.694;7.246;2022-08-21T00:59:06;6.07;;;3.67;;
4096;SDS011;2062;50.694;7.246;2022-08-21T01:01:34;7.25;;;3.72;;
4096;SDS011;2062;50.694;7.246;2022-08-21T01:04:02;7.07;;;3.60;;
4096;SDS011;2062;50.694;7.246;2022-08-21T01:06:29;7.28;;;3.50;;
4096;SDS011;2062;50.694;7.246;2022-08-21T01:08:57;7.57;;;3.67;;
4096;SDS011;2062;50.694;7.246;2022-08-21T01:11:24;6.90;;;3.60;;
4096;SDS011;2062;50.694;7.246;2022-08-21T01:13:51;7.07;;;3.70;;
4096;SDS011;2062;50.694;7.246;2022-08-21T01:16:20;8.52;;;3.80;;
4096;SDS011;2062;50.694;7.246;2022-08-21T01:18:49;8.15;;;3.60;;
4096;SDS011;2062;50.694;7.246;2022-08-21T01:21:19;7.05;;;3.53;;
4096;SDS011;2062;50.694;7.246;2022-08-21T01:23:50;7.47;;;3.60;;
4096;SDS011;2062;50.694;7.246;2022-08-21T01:26:20;7.97;;;3.90;;
4096;SDS011;2062;50.694;7.246;2022-08-21T01:28:50;9.93;;;4.00;;
4096;SDS011;2062;50.694;7.246;2022-08-21T01:31:22;6.95;;;3.60;;
4096;SDS011;2062;50.694;7.246;2022-08-21T01:33:50;8.02;;;3.78;;
4096;SDS011;2062;50.694;7.246;2022-08-21T01:36:19;8.70;;;3.73;;
4096;SDS011;2062;50.694;7.246;2022-08-21T01:38:47;7.40;;;3.75;;
4096;SDS011;2062;50.694;7.246;2022-08-21T01:41:14;7.68;;;3.60;;
4096;SDS011;2062;50.694;7.246;2022-08-21T01:43:42;7.72;;;3.83;;
4096;SDS011;2062;50.694;7.246;2022-08-21T01:46:10;9.68;;;3.80;;
4096;SDS011;2062;50.694;7.246;2022-08-21T01:48:38;6.73;;;3.60;;
4096;SDS011;2062;50.694;7.246;2022-08-21T01:51:05;8.90;;;3.97;;
4096;SDS011;2062;50.694;7.246;2022-08-21T01:53:33;7.28;;;4.22;;
4096;SDS011;2062;50.694;7.246;2022-08-21T01:56:02;8.55;;;3.70;;
4096;SDS011;2062;50.694;7.246;2022-08-21T01:58:30;8.32;;;4.10;;
4096;SDS011;2062;50.694;7.246;2022-08-21T02:00:58;6.17;;;3.17;;
4096;SDS011;2062;50.694;7.246;2022-08-21T02:03:26;7.50;;;3.65;;
4096;SDS011;2062;50.694;7.246;2022-08-21T02:05:53;8.35;;;3.92;;
4096;SDS011;2062;50.694;7.246;2022-08-21T02:08:20;7.78;;;3.95;;
4096;SDS011;2062;50.694;7.246;2022-08-21T02:10:49;7.45;;;3.80;;
4096;SDS011;2062;50.694;7.246;2022-08-21T02:13:17;6.73;;;3.40;;
4096;SDS011;2062;50.694;7.246;2022-08-21T02:15:44;6.13;;;3.45;;
4096;SDS011;2062;50.694;7.246;2022-08-21T02:18:11;6.45;;;3.50;;
4096;SDS011;2062;50.694;7.246;2022-08-21T02:20:39;7.25;;;3.63;;
4096;SDS011;2062;50.694;7.246;2022-08-21T02:23:09;8.75;;;3.83;;
4096;SDS011;2062;50.694;7.246;2022-08-21T02:25:37;7.53;;;3.60;;
4096;SDS011;2062;50.694;7.246;2022-08-21T02:28:06;6.88;;;3.58;;
4096;SDS011;2062;50.694;7.246;2022-08-21T02:30:36;7.07;;;3.65;;
4096;SDS011;2062;50.694;7.246;2022-08-21T02:33:04;6.88;;;3.60;;
4096;SDS011;2062;50.694;7.246;2022-08-21T02:35:31;7.75;;;3.40;;
4096;SDS011;2062;50.694;7.246;2022-08-21T02:37:59;6.70;;;3.20;;
4096;SDS011;2062;50.694;7.246;2022-08-21T02:40:28;8.80;;;3.53;;
4096;SDS011;2062;50.694;7.246;2022-08-21T02:42:57;8.45;;;3.40;;
4096;SDS011;2062;50.694;7.246;2022-08-21T02:45:25;8.35;;;3.40;;
4096;SDS011;2062;50.694;7.246;2022-08-21T02:47:54;6.90;;;3.30;;
4096;SDS011;2062;50.694;7.246;2022-08-21T02:50:24;6.80;;;3.30;;
4096;SDS011;2062;50.694;7.246;2022-08-21T02:52:53;7.40;;;3.80;;
4096;SDS011;2062;50.694;7.246;2022-08-21T02:55:20;7.13;;;3.60;;
4096;SDS011;2062;50.694;7.246;2022-08-21T02:57:48;6.55;;;3.38;;
4096;SDS011;2062;50.694;7.246;2022-08-21T03:00:15;7.10;;;3.40;;
4096;SDS011;2062;50.694;7.246;2022-08-21T03:02:43;6.10;;;3.40;;
4096;SDS011;2062;50.694;7.246;2022-08-21T03:05:11;6.78;;;3.75;;
4096;SDS011;2062;50.694;7.246;2022-08-21T03:07:40;7.10;;;3.60;;
4096;SDS011;2062;50.694;7.246;2022-08-21T03:10:07;6.53;;;3.30;;
4096;SDS011;2062;50.694;7.246;2022-08-21T03:12:35;8.43;;;3.47;;
4096;SDS011;2062;50.694;7.246;2022-08-21T03:15:02;7.23;;;3.30;;
4096;SDS011;2062;50.694;7.246;2022-08-21T03:17:29;6.78;;;3.58;;
4096;SDS011;2062;50.694;7.246;2022-08-21T03:19:58;6.88;;;3.65;;
4096;SDS011;2062;50.694;7.246;2022-08-21T03:22:25;6.40;;;3.03;;
4096;SDS011;2062;50.694;7.246;2022-08-21T03:24:52;7.07;;;3.47;;
4096;SDS011;2062;50.694;7.246;2022-08-21T03:27:19;7.77;;;3.53;;
4096;SDS011;2062;50.694;7.246;2022-08-21T03:29:46;6.20;;;3.22;;
4096;SDS011;2062;50.694;7.246;2022-08-21T03:32:13;7.57;;;3.40;;
4096;SDS011;2062;50.694;7.246;2022-08-21T03:34:40;6.85;;;3.35;;
4096;SDS011;2062;50.694;7.246;2022-08-21T03:37:08;6.63;;;3.20;;
4096;SDS011;2062;50.694;7.246;2022-08-21T03:39:35;6.90;;;3.27;;
4096;SDS011;2062;50.694;7.246;2022-08-21T03:42:02;7.60;;;3.00;;
4096;SDS011;2062;50.694;7.246;2022-08-21T03:44:30;8.93;;;3.78;;
4096;SDS011;2062;50.694;7.246;2022-08-21T03:46:57;7.78;;;3.30;;
4096;SDS011;2062;50.694;7.246;2022-08-21T03:49:24;6.18;;;3.22;;
4096;SDS011;2062;50.694;7.246;2022-08-21T03:51:52;6.70;;;3.30;;
4096;SDS011;2062;50.694;7.246;2022-08-21T03:54:20;6.93;;;3.30;;
4096;SDS011;2062;50.694;7.246;2022-08-21T03:56:47;6.53;;;3.20;;
4096;SDS011;2062;50.694;7.246;2022-08-21T03:59:14;7.03;;;3.55;;
4096;SDS011;2062;50.694;7.246;2022-08-21T04:01:50;7.03;;;3.40;;
4096;SDS011;2062;50.694;7.246;2022-08-21T04:04:17;6.20;;;3.20;;
4096;SDS011;2062;50.694;7.246;2022-08-21T04:06:44;6.85;;;3.15;;
4096;SDS011;2062;50.694;7.246;2022-08-21T04:09:11;5.97;;;3.00;;
4096;SDS011;2062;50.694;7.246;2022-08-21T04:11:39;7.47;;;3.20;;
4096;SDS011;2062;50.694;7.246;2022-08-21T04:14:06;6.05;;;3.00;;
4096;SDS011;2062;50.694;7.246;2022-08-21T04:16:33;9.47;;;3.30;;
4096;SDS011;2062;50.694;7.246;2022-08-21T04:19:00;6.50;;;3.03;;
4096;SDS011;2062;50.694;7.246;2022-08-21T04:21:27;7.13;;;3.20;;
4096;SDS011;2062;50.694;7.246;2022-08-21T04:23:54;6.32;;;3.30;;
4096;SDS011;2062;50.694;7.246;2022-08-21T04:26:21;6.85;;;3.28;;
4096;SDS011;2062;50.694;7.246;2022-08-21T04:28:49;6.33;;;3.50;;
4096;SDS011;2062;50.694;7.246;2022-08-21T04:31:16;6.32;;;3.03;;
4096;SDS011;2062;50.694;7.246;2022-08-21T04:33:43;8.13;;;3.60;;
4096;SDS011;2062;50.694;7.246;2022-08-21T04:36:10;7.20;;;3.65;;
4096;SDS011;2062;50.694;7.246;2022-08-21T04:38:37;6.40;;;3.30;;
4096;SDS011;2062;50.694;7.246;2022-08-21T04:41:04;6.37;;;3.30;;
4096;SDS011;2062;50.694;7.246;2022-08-21T04:43:31;7.28;;;3.33;;
4096;SDS011;2062;50.694;7.246;2022-08-21T04:45:59;7.55;;;3.22;;
4096;SDS011;2062;50.694;7.246;2022-08-21T04:48:26;7.20;;;2.95;;
4096;SDS011;2062;50.694;7.246;2022-08-21T04:50:54;6.13;;;3.08;;
4096;SDS011;2062;50.694;7.246;2022-08-21T04:53:24;6.73;;;3.03;;
4096;SDS011;2062;50.694;7.246;2022-08-21T04:55:57;7.05;;;3.00;;
4096;SDS011;2062;50.694;7.246;2022-08-21T04:58:29;7.45;;;3.20;;
4096;SDS011;2062;50.694;7.246;2022-08-21T05:00:59;6.55;;;2.78;;
4096;SDS011;2062;50.694;7.246;2022-08-21T05:03:27;6.43;;;2.92;;
4096;SDS011;2062;50.694;7.246;2022-08-21T05:05:56;6.37;;;2.87;;
4096;SDS011;2062;50.694;7.246;2022-08-21T05:08:23;8.43;;;3.08;;
4096;SDS011;2062;50.694;7.246;2022-08-21T05:10:52;6.93;;;3.28;;
4096;SDS011;2062;50.694;7.246;2022-08-21T05:13:20;7.40;;;3.28;;
4096;SDS011;2062;50.694;7.246;2022-08-21T05:15:47;7.15;;;3.08;;
4096;SDS011;2062;50.694;7.246;2022-08-21T05:18:15;8.60;;;2.90;;
4096;SDS011;2062;50.694;7.246;2022-08-21T05:20:42;7.10;;;2.88;;
4096;SDS011;2062;50.694;7.246;2022-08-21T05:23:10;8.07;;;2.85;;
4096;SDS011;2062;50.694;7.246;2022-08-21T05:25:39;6.43;;;2.90;;
4096;SDS011;2062;50.694;7.246;2022-08-21T05:28:07;5.85;;;2.60;;
4096;SDS011;2062;50.694;7.246;2022-08-21T05:30:34;7.40;;;2.90;;
4096;SDS011;2062;50.694;7.246;2022-08-21T05:33:04;9.15;;;2.95;;
4096;SDS011;2062;50.694;7.246;2022-08-21T05:35:33;6.75;;;2.90;;
4096;SDS011;2062;50.694;7.246;2022-08-21T05:38:00;7.05;;;2.70;;
4096;SDS011;2062;50.694;7.246;2022-08-21T05:40:27;5.20;;;2.88;;
4096;SDS011;2062;50.694;7.246;2022-08-21T05:42:55;5.83;;;2.80;;
4096;SDS011;2062;50.694;7.246;2022-08-21T05:45:24;6.13;;;2.75;;
4096;SDS011;2062;50.694;7.246;2022-08-21T05:47:55;7.68;;;3.28;;
4096;SDS011;2062;50.694;7.246;2022-08-21T05:50:21;7.03;;;2.70;;
4096;SDS011;2062;50.694;7.246;2022-08-21T05:52:50;6.88;;;2.90;;
4096;SDS011;2062;50.694;7.246;2022-08-21T05:55:16;6.33;;;2.87;;
4096;SDS011;2062;50.694;7.246;2022-08-21T05:57:43;8.10;;;2.97;;
4096;SDS011;2062;50.694;7.246;2022-08-21T06:00:10;7.75;;;3.03;;
4096;SDS011;2062;50.694;7.246;2022-08-21T06:02:38;8.05;;;2.78;;
4096;SDS011;2062;50.694;7.246;2022-08-21T06:05:05;6.65;;;3.10;;
4096;SDS011;2062;50.694;7.246;2022-08-21T06:07:32;7.37;;;2.73;;
4096;SDS011;2062;50.694;7.246;2022-08-21T06:10:00;6.40;;;2.75;;
4096;SDS011;2062;50.694;7.246;2022-08-21T06:12:27;7.05;;;2.80;;
4096;SDS011;2062;50.694;7.246;2022-08-21T06:14:54;5.72;;;2.63;;
4096;SDS011;2062;50.694;7.246;2022-08-21T06:17:21;7.57;;;2.90;;
4096;SDS011;2062;50.694;7.246;2022-08-21T06:19:50;5.90;;;2.50;;
4096;SDS011;2062;50.694;7.246;2022-08-21T06:22:18;10.02;;;2.88;;
4096;SDS011;2062;50.694;7.246;2022-08-21T06:24:46;6.32;;;2.67;;
4096;SDS011;2062;50.694;7.246;2022-08-21T06:27:14;6.10;;;3.03;;
4096;SDS011;2062;50.694;7.246;2022-08-21T06:29:43;8.85;;;3.75;;
4096;SDS011;2062;50.694;7.246;2022-08-21T06:32:10;8.17;;;3.00;;
4096;SDS011;2062;50.694;7.246;2022-08-21T06:34:38;9.02;;;2.90;;
4096;SDS011;2062;50.694;7.246;2022-08-21T06:37:06;7.22;;;2.83;;
4096;SDS011;2062;50.694;7.246;2022-08-21T06:39:33;7.00;;;2.63;;
4096;SDS011;2062;50.694;7.246;2022-08-21T06:42:00;7.75;;;3.00;;
4096;SDS011;2062;50.694;7.246;2022-08-21T06:44:29;9.80;;;2.90;;
4096;SDS011;2062;50.694;7.246;2022-08-21T06:46:56;8.38;;;3.03;;
4096;SDS011;2062;50.694;7.246;2022-08-21T06:49:23;7.20;;;3.00;;
4096;SDS011;2062;50.694;7.246;2022-08-21T06:51:50;7.93;;;3.20;;
4096;SDS011;2062;50.694;7.246;2022-08-21T06:54:17;8.50;;;2.95;;
4096;SDS011;2062;50.694;7.246;2022-08-21T06:56:44;7.83;;;3.33;;
4096;SDS011;2062;50.694;7.246;2022-08-21T06:59:11;10.38;;;3.70;;
4096;SDS011;2062;50.694;7.246;2022-08-21T07:01:39;13.23;;;3.58;;
4096;SDS011;2062;50.694;7.246;2022-08-21T07:04:06;11.32;;;3.88;;
4096;SDS011;2062;50.694;7.246;2022-08-21T07:06:33;11.63;;;4.18;;
4096;SDS011;2062;50.694;7.246;2022-08-21T07:09:00;13.17;;;4.30;;
4096;SDS011;2062;50.694;7.246;2022-08-21T07:11:28;14.77;;;4.35;;
4096;SDS011;2062;50.694;7.246;2022-08-21T07:13:55;11.57;;;4.68;;
4096;SDS011;2062;50.694;7.246;2022-08-21T07:16:22;10.52;;;4.25;;
4096;SDS011;2062;50.694;7.246;2022-08-21T07:18:50;10.38;;;4.18;;
4096;SDS011;2062;50.694;7.246;2022-08-21T07:21:17;8.93;;;4.33;;
4096;SDS011;2062;50.694;7.246;2022-08-21T07:23:45;12.10;;;3.97;;
4096;SDS011;2062;50.694;7.246;2022-08-21T07:26:15;10.10;;;4.10;;
4096;SDS011;2062;50.694;7.246;2022-08-21T07:28:44;9.23;;;4.18;;
4096;SDS011;2062;50.694;7.246;2022-08-21T07:31:12;14.50;;;4.75;;
4096;SDS011;2062;50.694;7.246;2022-08-21T07:33:40;11.70;;;4.27;;
4096;SDS011;2062;50.694;7.246;2022-08-21T07:36:09;13.48;;;4.50;;
4096;SDS011;2062;50.694;7.246;2022-08-21T07:38:37;14.00;;;4.40;;
4096;SDS011;2062;50.694;7.246;2022-08-21T07:41:06;12.23;;;4.60;;
4096;SDS011;2062;50.694;7.246;2022-08-21T07:43:39;11.57;;;4.35;;
4096;SDS011;2062;50.694;7.246;2022-08-21T07:46:06;10.60;;;4.50;;
4096;SDS011;2062;50.694;7.246;2022-08-21T07:48:33;13.38;;;4.35;;
4096;SDS011;2062;50.694;7.246;2022-08-21T07:51:01;10.43;;;4.43;;
4096;SDS011;2062;50.694;7.246;2022-08-21T07:53:33;11.27;;;4.40;;
4096;SDS011;2062;50.694;7.246;2022-08-21T07:56:00;10.00;;;4.57;;
4096;SDS011;2062;50.694;7.246;2022-08-21T07:58:27;12.40;;;5.03;;
4096;SDS011;2062;50.694;7.246;2022-08-21T08:00:54;11.30;;;4.50;;
4096;SDS011;2062;50.694;7.246;2022-08-21T08:03:21;14.32;;;4.60;;
4096;SDS011;2062;50.694;7.246;2022-08-21T08:05:48;10.48;;;4.38;;
4096;SDS011;2062;50.694;7.246;2022-08-21T08:08:14;10.27;;;4.13;;
4096;SDS011;2062;50.694;7.246;2022-08-21T08:10:43;15.03;;;4.63;;
4096;SDS011;2062;50.694;7.246;2022-08-21T08:13:11;14.70;;;4.47;;
4096;SDS011;2062;50.694;7.246;2022-08-21T08:15:37;10.68;;;4.18;;
4096;SDS011;2062;50.694;7.246;2022-08-21T08:18:04;9.63;;;4.20;;
4096;SDS011;2062;50.694;7.246;2022-08-21T08:20:31;11.05;;;4.05;;
4096;SDS011;2062;50.694;7.246;2022-08-21T08:22:58;12.97;;;4.27;;
4096;SDS011;2062;50.694;7.246;2022-08-21T08:25:25;15.10;;;4.10;;
4096;SDS011;2062;50.694;7.246;2022-08-21T08:27:55;12.60;;;4.15;;
4096;SDS011;2062;50.694;7.246;2022-08-21T08:30:22;12.73;;;4.25;;
4096;SDS011;2062;50.694;7.246;2022-08-21T08:32:49;9.95;;;4.10;;
4096;SDS011;2062;50.694;7.246;2022-08-21T08:35:16;13.63;;;3.90;;
4096;SDS011;2062;50.694;7.246;2022-08-21T08:37:43;9.52;;;4.57;;
4096;SDS011;2062;50.694;7.246;2022-08-21T08:40:12;9.52;;;3.78;;
4096;SDS011;2062;50.694;7.246;2022-08-21T08:42:44;10.43;;;3.45;;
4096;SDS011;2062;50.694;7.246;2022-08-21T08:45:18;10.43;;;3.13;;
4096;SDS011;2062;50.694;7.246;2022-08-21T08:47:47;9.00;;;3.23;;
4096;SDS011;2062;50.694;7.246;2022-08-21T08:50:23;9.95;;;3.40;;
4096;SDS011;2062;50.694;7.246;2022-08-21T08:53:05;9.65;;;3.28;;
4096;SDS011;2062;50.694;7.246;2022-08-21T08:55:35;11.18;;;3.22;;
4096;SDS011;2062;50.694;7.246;2022-08-21T08:58:04;9.07;;;3.08;;
4096;SDS011;2062;50.694;7.246;2022-08-21T09:00:33;9.30;;;3.30;;
4096;SDS011;2062;50.694;7.246;2022-08-21T09:03:01;9.25;;;3.38;;
4096;SDS011;2062;50.694;7.246;2022-08-21T09:05:30;10.90;;;3.55;;
4096;SDS011;2062;50.694;7.246;2022-08-21T09:08:20;8.38;;;3.65;;
4096;SDS011;2062;50.694;7.246;2022-08-21T09:11:00;10.27;;;3.10;;
4096;SDS011;2062;50.694;7.246;2022-08-21T09:13:32;10.73;;;3.10;;
4096;SDS011;2062;50.694;7.246;2022-08-21T09:16:12;8.30;;;3.08;;
4096;SDS011;2062;50.694;7.246;2022-08-21T09:18:52;11.73;;;3.30;;
4096;SDS011;2062;50.694;7.246;2022-08-21T09:21:28;7.20;;;3.00;;
4096;SDS011;2062;50.694;7.246;2022-08-21T09:24:12;11.18;;;2.85;;
4096;SDS011;2062;50.694;7.246;2022-08-21T09:26:54;9.87;;;2.80;;
4096;SDS011;2062;50.694;7.246;2022-08-21T09:29:28;7.70;;;3.17;;
4096;SDS011;2062;50.694;7.246;2022-08-21T09:32:00;7.25;;;2.72;;
4096;SDS011;2062;50.694;7.246;2022-08-21T09:34:29;7.50;;;2.63;;
4096;SDS011;2062;50.694;7.246;2022-08-21T09:36:57;8.00;;;2.67;;
4096;SDS011;2062;50.694;7.246;2022-08-21T09:39:26;9.20;;;2.73;;
4096;SDS011;2062;50.694;7.246;2022-08-21T09:41:56;8.82;;;2.88;;
4096;SDS011;2062;50.694;7.246;2022-08-21T09:44:24;7.57;;;2.75;;
4096;SDS011;2062;50.694;7.246;2022-08-21T09:46:53;6.95;;;2.40;;
4096;SDS011;2062;50.694;7.246;2022-08-21T09:49:28;7.40;;;3.20;;
4096;SDS011;2062;50.694;7.246;2022-08-21T09:51:56;6.57;;;2.80;;
4096;SDS011;2062;50.694;7.246;2022-08-21T09:54:26;7.05;;;2.50;;
4096;SDS011;2062;50.694;7.246;2022-08-21T09:56:57;8.50;;;2.55;;
4096;SDS011;2062;50.694;7.246;2022-08-21T09:59:43;6.85;;;2.50;;
4096;SDS011;2062;50.694;7.246;2022-08-21T10:02:22;6.05;;;2.40;;
4096;SDS011;2062;50.694;7.246;2022-08-21T10:04:54;11.10;;;3.10;;
4096;SDS011;2062;50.694;7.246;2022-08-21T10:07:23;10.38;;;2.70;;
4096;SDS011;2062;50.694;7.246;2022-08-21T10:10:03;9.50;;;2.75;;
4096;SDS011;2062;50.694;7.246;2022-08-21T10:12:35;7.35;;;2.58;;
4096;SDS011;2062;50.694;7.246;2022-08-21T10:15:13;8.55;;;2.50;;
4096;SDS011;2062;50.694;7.246;2022-08-21T10:17:48;8.80;;;2.67;;
4096;SDS011;2062;50.694;7.246;2022-08-21T10:20:24;8.70;;;2.42;;
4096;SDS011;2062;50.694;7.246;2022-08-21T10:23:00;7.85;;;2.40;;
4096;SDS011;2062;50.694;7.246;2022-08-21T10:25:35;10.85;;;2.65;;
4096;SDS011;2062;50.694;7.246;2022-08-21T10:28:09;8.38;;;2.35;;
4096;SDS011;2062;50.694;7.246;2022-08-21T10:30:45;6.90;;;2.60;;
4096;SDS011;2062;50.694;7.246;2022-08-21T10:33:22;7.90;;;2.25;;
4096;SDS011;2062;50.694;7.246;2022-08-21T10:36:02;8.60;;;2.53;;
4096;SDS011;2062;50.694;7.246;2022-08-21T10:38:56;9.43;;;2.17;;
4096;SDS011;2062;50.694;7.246;2022-08-21T10:41:32;8.82;;;2.25;;
4096;SDS011;2062;50.694;7.246;2022-08-21T10:44:14;8.33;;;2.30;;
4096;SDS011;2062;50.694;7.246;2022-08-21T10:46:50;7.97;;;2.25;;
4096;SDS011;2062;50.694;7.246;2022-08-21T10:49:22;8.70;;;2.13;;
4096;SDS011;2062;50.694;7.246;2022-08-21T10:52:01;8.68;;;2.40;;
4096;SDS011;2062;50.694;7.246;2022-08-21T10:54:41;9.88;;;2.40;;
4096;SDS011;2062;50.694;7.246;2022-08-21T10:57:18;7.17;;;2.30;;
4096;SDS011;2062;50.694;7.246;2022-08-21T11:00:00;6.57;;;2.13;;
4096;SDS011;2062;50.694;7.246;2022-08-21T11:02:33;9.45;;;2.25;;
4096;SDS011;2062;50.694;7.246;2022-08-21T11:05:07;6.80;;;2.10;;
4096;SDS011;2062;50.694;7.246;2022-08-21T11:07:43;12.07;;;2.00;;
4096;SDS011;2062;50.694;7.246;2022-08-21T11:10:15;9.53;;;2.40;;
4096;SDS011;2062;50.694;7.246;2022-08-21T11:12:47;13.63;;;2.30;;
4096;SDS011;2062;50.694;7.246;2022-08-21T11:15:26;7.13;;;2.30;;
4096;SDS011;2062;50.694;7.246;2022-08-21T11:18:00;7.72;;;2.13;;
4096;SDS011;2062;50.694;7.246;2022-08-21T11:20:38;7.53;;;2.08;;
4096;SDS011;2062;50.694;7.246;2022-08-21T11:23:14;8.03;;;1.97;;
4096;SDS011;2062;50.694;7.246;2022-08-21T11:25:45;8.40;;;2.17;;
4096;SDS011;2062;50.694;7.246;2022-08-21T11:28:20;6.85;;;2.00;;
4096;SDS011;2062;50.694;7.246;2022-08-21T11:30:52;11.13;;;2.38;;
4096;SDS011;2062;50.694;7.246;2022-08-21T11:33:37;7.35;;;2.13;;
4096;SDS011;2062;50.694;7.246;2022-08-21T11:36:20;7.23;;;1.93;;
4096;SDS011;2062;50.694;7.246;2022-08-21T11:39:01;8.80;;;2.03;;
4096;SDS011;2062;50.694;7.246;2022-08-21T11:41:34;10.23;;;2.30;;
4096;SDS011;2062;50.694;7.246;2022-08-21T11:44:09;12.02;;;2.15;;
4096;SDS011;2062;50.694;7.246;2022-08-21T11:46:43;14.00;;;2.47;;
4096;SDS011;2062;50.694;7.246;2022-08-21T11:52:08;9.20;;;1.92;;
4096;SDS011;2062;50.694;7.246;2022-08-21T11:54:44;7.55;;;2.00;;
4096;SDS011;2062;50.694;7.246;2022-08-21T11:57:17;8.05;;;2.28;;
4096;SDS011;2062;50.694;7.246;2022-08-21T11:59:48;6.32;;;1.80;;
4096;SDS011;2062;50.694;7.246;2022-08-21T12:02:20;6.03;;;1.90;;
4096;SDS011;2062;50.694;7.246;2022-08-21T12:04:51;6.38;;;1.98;;
4096;SDS011;2062;50.694;7.246;2022-08-21T12:07:29;6.63;;;1.83;;
4096;SDS011;2062;50.694;7.246;2022-08-21T12:10:03;7.13;;;2.03;;
4096;SDS011;2062;50.694;7.246;2022-08-21T12:12:34;6.30;;;2.20;;
4096;SDS011;2062;50.694;7.246;2022-08-21T12:15:11;6.60;;;2.43;;
4096;SDS011;2062;50.694;7.246;2022-08-21T12:17:50;6.38;;;1.80;;
4096;SDS011;2062;50.694;7.246;2022-08-21T12:20:23;6.95;;;2.10;;
4096;SDS011;2062;50.694;7.246;2022-08-21T12:23:27;5.72;;;2.30;;
4096;SDS011;2062;50.694;7.246;2022-08-21T12:26:01;6.53;;;1.92;;
4096;SDS011;2062;50.694;7.246;2022-08-21T12:28:36;6.13;;;2.07;;
4096;SDS011;2062;50.694;7.246;2022-08-21T12:31:05;6.72;;;2.25;;
4096;SDS011;2062;50.694;7.246;2022-08-21T12:33:50;8.80;;;2.15;;
4096;SDS011;2062;50.694;7.246;2022-08-21T12:36:21;5.55;;;2.00;;
4096;SDS011;2062;50.694;7.246;2022-08-21T12:38:51;7.68;;;2.05;;
4096;SDS011;2062;50.694;7.246;2022-08-21T12:41:24;6.13;;;1.83;;
4096;SDS011;2062;50.694;7.246;2022-08-21T12:43:56;6.03;;;1.85;;
4096;SDS011;2062;50.694;7.246;2022-08-21T12:46:26;8.95;;;2.00;;
4096;SDS011;2062;50.694;7.246;2022-08-21T12:48:59;7.47;;;1.80;;
4096;SDS011;2062;50.694;7.246;2022-08-21T12:51:34;6.57;;;1.90;;
4096;SDS011;2062;50.694;7.246;2022-08-21T12:54:21;4.87;;;1.70;;
4096;SDS011;2062;50.694;7.246;2022-08-21T12:56:56;4.13;;;1.70;;
4096;SDS011;2062;50.694;7.246;2022-08-21T12:59:28;5.72;;;1.80;;
4096;SDS011;2062;50.694;7.246;2022-08-21T13:01:57;5.45;;;2.00;;
4096;SDS011;2062;50.694;7.246;2022-08-21T13:04:30;6.32;;;2.15;;
4096;SDS011;2062;50.694;7.246;2022-08-21T13:07:04;6.03;;;1.80;;
4096;SDS011;2062;50.694;7.246;2022-08-21T13:09:32;5.85;;;1.92;;
4096;SDS011;2062;50.694;7.246;2022-08-21T13:12:01;6.18;;;2.10;;
4096;SDS011;2062;50.694;7.246;2022-08-21T13:14:29;6.18;;;2.20;;
4096;SDS011;2062;50.694;7.246;2022-08-21T13:17:00;5.38;;;1.98;;
4096;SDS011;2062;50.694;7.246;2022-08-21T13:19:30;4.63;;;1.80;;
4096;SDS011;2062;50.694;7.246;2022-08-21T13:21:58;9.30;;;2.47;;
4096;SDS011;2062;50.694;7.246;2022-08-21T13:24:26;7.88;;;2.00;;
4096;SDS011;2062;50.694;7.246;2022-08-21T13:26:55;5.32;;;1.80;;
4096;SDS011;2062;50.694;7.246;2022-08-21T13:29:27;7.07;;;2.22;;
4096;SDS011;2062;50.694;7.246;2022-08-21T13:31:57;7.00;;;1.73;;
4096;SDS011;2062;50.694;7.246;2022-08-21T13:34:28;6.20;;;1.90;;
4096;SDS011;2062;50.694;7.246;2022-08-21T13:36:58;5.07;;;2.03;;
4096;SDS011;2062;50.694;7.246;2022-08-21T13:39:27;7.95;;;2.13;;
4096;SDS011;2062;50.694;7.246;2022-08-21T13:41:55;6.32;;;2.10;;
4096;SDS011;2062;50.694;7.246;2022-08-21T13:44:34;7.87;;;1.90;;
4096;SDS011;2062;50.694;7.246;2022-08-21T13:47:03;8.40;;;2.00;;
4096;SDS011;2062;50.694;7.246;2022-08-21T13:49:33;5.88;;;1.70;;
4096;SDS011;2062;50.694;7.246;2022-08-21T13:52:02;8.25;;;2.03;;
4096;SDS011;2062;50.694;7.246;2022-08-21T13:54:34;9.07;;;1.90;;
4096;SDS011;2062;50.694;7.246;2022-08-21T13:57:02;6.07;;;1.80;;
4096;SDS011;2062;50.694;7.246;2022-08-21T13:59:32;6.30;;;2.00;;
4096;SDS011;2062;50.694;7.246;2022-08-21T14:02:07;8.98;;;2.03;;
4096;SDS011;2062;50.694;7.246;2022-08-21T14:04:39;10.07;;;2.05;;
4096;SDS011;2062;50.694;7.246;2022-08-21T14:07:15;16.00;;;2.25;;
4096;SDS011;2062;50.694;7.246;2022-08-21T14:09:44;9.53;;;2.00;;
4096;SDS011;2062;50.694;7.246;2022-08-21T14:12:13;10.75;;;2.05;;
4096;SDS011;2062;50.694;7.246;2022-08-21T14:14:44;8.20;;;2.20;;
4096;SDS011;2062;50.694;7.246;2022-08-21T14:17:12;6.97;;;2.00;;
4096;SDS011;2062;50.694;7.246;2022-08-21T14:19:51;7.05;;;2.00;;
4096;SDS011;2062;50.694;7.246;2022-08-21T14:22:22;12.30;;;1.80;;
4096;SDS011;2062;50.694;7.246;2022-08-21T14:24:58;6.15;;;1.70;;
4096;SDS011;2062;50.694;7.246;2022-08-21T14:27:28;8.10;;;1.98;;
4096;SDS011;2062;50.694;7.246;2022-08-21T14:29:59;8.38;;;1.67;;
4096;SDS011;2062;50.694;7.246;2022-08-21T14:32:28;11.32;;;1.77;;
4096;SDS011;2062;50.694;7.246;2022-08-21T14:35:02;8.10;;;2.07;;
4096;SDS011;2062;50.694;7.246;2022-08-21T14:37:29;5.25;;;1.80;;
4096;SDS011;2062;50.694;7.246;2022-08-21T14:39:57;6.82;;;1.92;;
4096;SDS011;2062;50.694;7.246;2022-08-21T14:42:24;6.53;;;1.75;;
4096;SDS011;2062;50.694;7.246;2022-08-21T14:44:59;5.20;;;1.90;;
4096;SDS011;2062;50.694;7.246;2022-08-21T14:47:37;9.47;;;1.93;;
4096;SDS011;2062;50.694;7.246;2022-08-21T14:50:04;5.72;;;1.80;;
4096;SDS011;2062;50.694;7.246;2022-08-21T14:52:31;5.20;;;1.77;;
4096;SDS011;2062;50.694;7.246;2022-08-21T14:54:58;5.97;;;2.20;;
4096;SDS011;2062;50.694;7.246;2022-08-21T14:57:25;6.63;;;1.70;;
4096;SDS011;2062;50.694;7.246;2022-08-21T14:59:56;6.47;;;1.70;;
4096;SDS011;2062;50.694;7.246;2022-08-21T15:02:26;9.18;;;1.85;;
4096;SDS011;2062;50.694;7.246;2022-08-21T15:04:53;9.18;;;2.03;;
4096;SDS011;2062;50.694;7.246;2022-08-21T15:07:19;5.50;;;1.92;;
4096;SDS011;2062;50.694;7.246;2022-08-21T15:09:46;5.90;;;1.70;;
4096;SDS011;2062;50.694;7.246;2022-08-21T15:12:13;7.57;;;2.03;;
4096;SDS011;2062;50.694;7.246;2022-08-21T15:14:40;7.82;;;1.77;;
4096;SDS011;2062;50.694;7.246;2022-08-21T15:17:08;5.85;;;2.08;;
4096;SDS011;2062;50.694;7.246;2022-08-21T15:19:38;6.85;;;1.80;;
4096;SDS011;2062;50.694;7.246;2022-08-21T15:22:06;8.07;;;1.98;;
4096;SDS011;2062;50.694;7.246;2022-08-21T15:24:33;5.73;;;1.90;;
4096;SDS011;2062;50.694;7.246;2022-08-21T15:27:00;7.57;;;1.95;;
4096;SDS011;2062;50.694;7.246;2022-08-21T15:29:29;4.90;;;1.75;;
4096;SDS011;2062;50.694;7.246;2022-08-21T15:31:58;7.00;;;1.80;;